Station Historical Data
Daily Summary for July 2, 2017 Units:  Both    English   Metric
« Previous Day
Next Day »
Daily Weekly Monthly Yearly Custom
  High: Low: Average:
Temperature: 79.1 °F /  26.2 °C 58.6 °F /  14.8 °C 70.1 °F /  21.2 °C
Dew Point: 68.0 °F /  20 °C 56.3 °F /  13.5 °C 61.8 °F /  16.6 °C
Humidity: 93% 56% 76%
Wind Speed: 18.0mph /  29km/h - 4.3mph /  6.9km/h
Wind Gust: 26.0mph /  41.8km/h - -
Wind- - SW
Pressure: 29.99 in /  1015.5 hPa 29.92 in /  1013.1 hPa -
Precipitation: 0.00 in /  0 mm    
Historical Graphs
 
 
Tabular Data for July 2, 2017
Time Temperature Dew Point Pressure Wind Wind Speed Wind Gust Humidity Rainfall Rate (Hourly)
00:04 65.8 °F /  18.8 °C 61.2 °F /  16.2 °C 29.92in /  1013.1hPa Calm     85% 0.00in /  0mm
00:09 65.7 °F /  18.7 °C 61.1 °F /  16.2 °C 29.92in /  1013.1hPa Calm     85% 0.00in /  0mm
00:14 65.3 °F /  18.5 °C 61.0 °F /  16.1 °C 29.92in /  1013.1hPa Calm     86% 0.00in /  0mm
00:19 64.9 °F /  18.3 °C 60.3 °F /  15.7 °C 29.92in /  1013.1hPa Calm   5.0mph /  8km/h 85% 0.00in /  0mm
00:24 64.6 °F /  18.1 °C 60.3 °F /  15.7 °C 29.92in /  1013.1hPa South 1.0mph /  1.6km/h 5.0mph /  8km/h 86% 0.00in /  0mm
00:29 64.5 °F /  18.1 °C 60.2 °F /  15.7 °C 29.92in /  1013.1hPa Calm   3.0mph /  4.8km/h 86% 0.00in /  0mm
00:34 64.3 °F /  17.9 °C 60.0 °F /  15.6 °C 29.92in /  1013.1hPa Calm   3.0mph /  4.8km/h 86% 0.00in /  0mm
00:39 64.0 °F /  17.8 °C 59.7 °F /  15.4 °C 29.92in /  1013.1hPa Calm   2.0mph /  3.2km/h 86% 0.00in /  0mm
00:44 63.9 °F /  17.7 °C 60.0 °F /  15.6 °C 29.92in /  1013.1hPa Calm   2.0mph /  3.2km/h 87% 0.00in /  0mm
00:49 63.8 °F /  17.7 °C 59.5 °F /  15.3 °C 29.92in /  1013.1hPa South 1.0mph /  1.6km/h 3.0mph /  4.8km/h 86% 0.00in /  0mm
00:54 63.8 °F /  17.7 °C 59.5 °F /  15.3 °C 29.92in /  1013.1hPa South 2.0mph /  3.2km/h 3.0mph /  4.8km/h 86% 0.00in /  0mm
00:59 63.8 °F /  17.7 °C 59.5 °F /  15.3 °C 29.92in /  1013.1hPa Calm   2.0mph /  3.2km/h 86% 0.00in /  0mm
01:05 64.0 °F /  17.8 °C 59.7 °F /  15.4 °C 29.93in /  1013.4hPa Calm   3.0mph /  4.8km/h 86% 0.00in /  0mm
01:10 64.2 °F /  17.9 °C 59.9 °F /  15.5 °C 29.93in /  1013.4hPa Calm     86% 0.00in /  0mm
01:15 64.4 °F /  18 °C 59.8 °F /  15.4 °C 29.93in /  1013.4hPa Calm     85% 0.00in /  0mm
01:20 64.7 °F /  18.2 °C 60.1 °F /  15.6 °C 29.93in /  1013.4hPa Calm   1.0mph /  1.6km/h 85% 0.00in /  0mm
01:25 64.6 °F /  18.1 °C 59.7 °F /  15.4 °C 29.93in /  1013.4hPa Calm   2.0mph /  3.2km/h 84% 0.00in /  0mm
01:30 64.4 °F /  18 °C 59.5 °F /  15.3 °C 29.93in /  1013.4hPa Calm     84% 0.00in /  0mm
01:35 64.2 °F /  17.9 °C 59.3 °F /  15.2 °C 29.93in /  1013.4hPa Calm     84% 0.00in /  0mm
01:40 64.0 °F /  17.8 °C 59.1 °F /  15.1 °C 29.93in /  1013.4hPa Calm     84% 0.00in /  0mm
01:45 63.7 °F /  17.6 °C 59.1 °F /  15.1 °C 29.93in /  1013.4hPa Calm     85% 0.00in /  0mm
01:50 63.6 °F /  17.6 °C 59.0 °F /  15 °C 29.93in /  1013.4hPa Calm     85% 0.00in /  0mm
01:55 63.6 °F /  17.6 °C 59.0 °F /  15 °C 29.93in /  1013.4hPa Calm     85% 0.00in /  0mm
02:00 63.6 °F /  17.6 °C 59.3 °F /  15.2 °C 29.93in /  1013.4hPa Calm     86% 0.00in /  0mm
02:05 63.7 °F /  17.6 °C 59.1 °F /  15.1 °C 29.93in /  1013.4hPa Calm     85% 0.00in /  0mm
02:10 63.7 °F /  17.6 °C 59.1 °F /  15.1 °C 29.93in /  1013.4hPa Calm     85% 0.00in /  0mm
02:15 63.6 °F /  17.6 °C 59.0 °F /  15 °C 29.93in /  1013.4hPa Calm     85% 0.00in /  0mm
02:20 63.4 °F /  17.4 °C 58.8 °F /  14.9 °C 29.93in /  1013.4hPa Calm     85% 0.00in /  0mm
02:25 63.3 °F /  17.4 °C 58.7 °F /  14.8 °C 29.93in /  1013.4hPa Calm     85% 0.00in /  0mm
02:30 63.2 °F /  17.3 °C 58.9 °F /  14.9 °C 29.93in /  1013.4hPa Calm     86% 0.00in /  0mm
02:35 63.1 °F /  17.3 °C 58.8 °F /  14.9 °C 29.93in /  1013.4hPa Calm     86% 0.00in /  0mm
02:40 62.9 °F /  17.2 °C 58.6 °F /  14.8 °C 29.93in /  1013.4hPa Calm     86% 0.00in /  0mm
02:45 62.7 °F /  17.1 °C 58.8 °F /  14.9 °C 29.93in /  1013.4hPa Calm     87% 0.00in /  0mm
02:50 62.5 °F /  16.9 °C 58.6 °F /  14.8 °C 29.93in /  1013.4hPa Calm     87% 0.00in /  0mm
02:55 62.2 °F /  16.8 °C 58.3 °F /  14.6 °C 29.94in /  1013.8hPa Calm     87% 0.00in /  0mm
03:00 62.0 °F /  16.7 °C 58.4 °F /  14.7 °C 29.93in /  1013.4hPa Calm     88% 0.00in /  0mm
03:05 61.9 °F /  16.6 °C 58.3 °F /  14.6 °C 29.93in /  1013.4hPa Calm     88% 0.00in /  0mm
03:10 61.9 °F /  16.6 °C 58.3 °F /  14.6 °C 29.93in /  1013.4hPa Calm     88% 0.00in /  0mm
03:15 61.7 °F /  16.5 °C 58.1 °F /  14.5 °C 29.93in /  1013.4hPa Calm     88% 0.00in /  0mm
03:20 61.5 °F /  16.4 °C 57.9 °F /  14.4 °C 29.93in /  1013.4hPa Calm     88% 0.00in /  0mm
03:25 61.3 °F /  16.3 °C 57.7 °F /  14.3 °C 29.93in /  1013.4hPa Calm     88% 0.00in /  0mm
03:30 61.1 °F /  16.2 °C 57.8 °F /  14.3 °C 29.93in /  1013.4hPa Calm     89% 0.00in /  0mm
03:35 61.0 °F /  16.1 °C 57.7 °F /  14.3 °C 29.93in /  1013.4hPa Calm     89% 0.00in /  0mm
03:40 60.9 °F /  16.1 °C 57.6 °F /  14.2 °C 29.93in /  1013.4hPa Calm     89% 0.00in /  0mm
03:45 60.8 °F /  16 °C 57.5 °F /  14.2 °C 29.93in /  1013.4hPa Calm     89% 0.00in /  0mm
03:50 60.6 °F /  15.9 °C 57.3 °F /  14.1 °C 29.93in /  1013.4hPa Calm     89% 0.00in /  0mm
03:55 60.6 °F /  15.9 °C 57.7 °F /  14.3 °C 29.94in /  1013.8hPa Calm     90% 0.00in /  0mm
04:00 60.5 °F /  15.8 °C 57.6 °F /  14.2 °C 29.94in /  1013.8hPa Calm     90% 0.00in /  0mm
04:05 60.6 °F /  15.9 °C 57.7 °F /  14.3 °C 29.94in /  1013.8hPa Calm     90% 0.00in /  0mm
04:10 60.5 °F /  15.8 °C 57.6 °F /  14.2 °C 29.94in /  1013.8hPa Calm     90% 0.00in /  0mm
04:15 60.5 °F /  15.8 °C 57.6 °F /  14.2 °C 29.94in /  1013.8hPa Calm     90% 0.00in /  0mm
04:20 60.4 °F /  15.8 °C 57.5 °F /  14.2 °C 29.94in /  1013.8hPa Calm     90% 0.00in /  0mm
04:25 60.3 °F /  15.7 °C 57.4 °F /  14.1 °C 29.94in /  1013.8hPa Calm     90% 0.00in /  0mm
04:29 60.2 °F /  15.7 °C 57.6 °F /  14.2 °C 29.94in /  1013.8hPa Calm     91% 0.00in /  0mm
04:34 60.1 °F /  15.6 °C 57.5 °F /  14.2 °C 29.94in /  1013.8hPa Calm     91% 0.00in /  0mm
04:40 59.9 °F /  15.5 °C 57.3 °F /  14.1 °C 29.94in /  1013.8hPa Calm     91% 0.00in /  0mm
04:45 59.8 °F /  15.4 °C 57.2 °F /  14 °C 29.94in /  1013.8hPa Calm     91% 0.00in /  0mm
04:50 59.8 °F /  15.4 °C 57.2 °F /  14 °C 29.94in /  1013.8hPa Calm     91% 0.00in /  0mm
04:55 59.8 °F /  15.4 °C 57.2 °F /  14 °C 29.94in /  1013.8hPa Calm     91% 0.00in /  0mm
05:00 59.6 °F /  15.3 °C 57.0 °F /  13.9 °C 29.94in /  1013.8hPa Calm     91% 0.00in /  0mm
05:05 59.5 °F /  15.3 °C 56.9 °F /  13.8 °C 29.94in /  1013.8hPa Calm     91% 0.00in /  0mm
05:10 59.5 °F /  15.3 °C 56.9 °F /  13.8 °C 29.94in /  1013.8hPa Calm     91% 0.00in /  0mm
05:15 59.4 °F /  15.2 °C 57.1 °F /  13.9 °C 29.94in /  1013.8hPa Calm     92% 0.00in /  0mm
05:20 59.3 °F /  15.2 °C 57.0 °F /  13.9 °C 29.94in /  1013.8hPa Calm     92% 0.00in /  0mm
05:25 59.2 °F /  15.1 °C 56.9 °F /  13.8 °C 29.94in /  1013.8hPa Calm     92% 0.00in /  0mm
05:30 59.1 °F /  15.1 °C 56.8 °F /  13.8 °C 29.94in /  1013.8hPa Calm     92% 0.00in /  0mm
05:35 59.1 °F /  15.1 °C 56.8 °F /  13.8 °C 29.94in /  1013.8hPa Calm     92% 0.00in /  0mm
05:40 58.9 °F /  14.9 °C 56.6 °F /  13.7 °C 29.95in /  1014.1hPa Calm     92% 0.00in /  0mm
05:45 58.9 °F /  14.9 °C 56.6 °F /  13.7 °C 29.95in /  1014.1hPa Calm     92% 0.00in /  0mm
05:49 58.9 °F /  14.9 °C 56.6 °F /  13.7 °C 29.95in /  1014.1hPa Calm     92% 0.00in /  0mm
05:55 58.9 °F /  14.9 °C 56.6 °F /  13.7 °C 29.95in /  1014.1hPa Calm     92% 0.00in /  0mm
06:00 58.8 °F /  14.9 °C 56.5 °F /  13.6 °C 29.95in /  1014.1hPa Calm     92% 0.00in /  0mm
06:05 58.8 °F /  14.9 °C 56.5 °F /  13.6 °C 29.95in /  1014.1hPa Calm     92% 0.00in /  0mm
06:10 58.6 °F /  14.8 °C 56.3 °F /  13.5 °C 29.95in /  1014.1hPa Calm     92% 0.00in /  0mm
06:15 58.8 °F /  14.9 °C 56.5 °F /  13.6 °C 29.96in /  1014.4hPa Calm     92% 0.00in /  0mm
06:20 58.9 °F /  14.9 °C 56.6 °F /  13.7 °C 29.96in /  1014.4hPa Calm     92% 0.00in /  0mm
06:25 59.0 °F /  15 °C 56.7 °F /  13.7 °C 29.96in /  1014.4hPa Calm     92% 0.00in /  0mm
06:30 59.4 °F /  15.2 °C 57.4 °F /  14.1 °C 29.97in /  1014.8hPa Calm     93% 0.00in /  0mm
06:35 59.8 °F /  15.4 °C 57.8 °F /  14.3 °C 29.96in /  1014.4hPa Calm     93% 0.00in /  0mm
06:40 60.3 °F /  15.7 °C 58.3 °F /  14.6 °C 29.96in /  1014.4hPa Calm     93% 0.00in /  0mm
06:45 61.0 °F /  16.1 °C 59.0 °F /  15 °C 29.97in /  1014.8hPa Calm     93% 0.00in /  0mm
06:50 61.4 °F /  16.3 °C 59.4 °F /  15.2 °C 29.97in /  1014.8hPa Calm     93% 0.00in /  0mm
06:55 61.6 °F /  16.4 °C 59.6 °F /  15.3 °C 29.97in /  1014.8hPa Calm     93% 0.00in /  0mm
07:00 62.0 °F /  16.7 °C 59.6 °F /  15.3 °C 29.97in /  1014.8hPa Calm     92% 0.00in /  0mm
07:04 62.5 °F /  16.9 °C 60.1 °F /  15.6 °C 29.97in /  1014.8hPa Calm     92% 0.00in /  0mm
07:10 63.1 °F /  17.3 °C 60.4 °F /  15.8 °C 29.97in /  1014.8hPa Calm     91% 0.00in /  0mm
07:15 63.6 °F /  17.6 °C 60.6 °F /  15.9 °C 29.97in /  1014.8hPa Calm     90% 0.00in /  0mm
07:20 64.4 °F /  18 °C 60.4 °F /  15.8 °C 29.97in /  1014.8hPa Calm     87% 0.00in /  0mm
07:25 65.2 °F /  18.4 °C 60.6 °F /  15.9 °C 29.97in /  1014.8hPa Calm     85% 0.00in /  0mm
07:29 65.8 °F /  18.8 °C 60.2 °F /  15.7 °C 29.97in /  1014.8hPa Calm   2.0mph /  3.2km/h 82% 0.00in /  0mm
07:35 66.3 °F /  19.1 °C 61.0 °F /  16.1 °C 29.97in /  1014.8hPa SSW 1.0mph /  1.6km/h 3.0mph /  4.8km/h 83% 0.00in /  0mm
07:40 66.4 °F /  19.1 °C 61.1 °F /  16.2 °C 29.97in /  1014.8hPa SSW 1.0mph /  1.6km/h 3.0mph /  4.8km/h 83% 0.00in /  0mm
07:45 67.2 °F /  19.6 °C 61.9 °F /  16.6 °C 29.97in /  1014.8hPa Calm   2.0mph /  3.2km/h 83% 0.00in /  0mm
07:50 67.2 °F /  19.6 °C 61.9 °F /  16.6 °C 29.97in /  1014.8hPa Calm     83% 0.00in /  0mm
07:55 67.3 °F /  19.6 °C 61.6 °F /  16.4 °C 29.97in /  1014.8hPa Calm     82% 0.00in /  0mm
08:00 67.4 °F /  19.7 °C 62.1 °F /  16.7 °C 29.97in /  1014.8hPa Calm   4.0mph /  6.4km/h 83% 0.00in /  0mm
08:04 67.7 °F /  19.8 °C 62.0 °F /  16.7 °C 29.97in /  1014.8hPa SSW 1.0mph /  1.6km/h 4.0mph /  6.4km/h 82% 0.00in /  0mm
08:10 68.4 °F /  20.2 °C 62.3 °F /  16.8 °C 29.97in /  1014.8hPa SSW 1.0mph /  1.6km/h 5.0mph /  8km/h 81% 0.00in /  0mm
08:15 68.6 °F /  20.3 °C 62.5 °F /  16.9 °C 29.97in /  1014.8hPa SW 1.0mph /  1.6km/h 5.0mph /  8km/h 81% 0.00in /  0mm
08:20 68.7 °F /  20.4 °C 62.3 °F /  16.8 °C 29.97in /  1014.8hPa SSW 2.0mph /  3.2km/h 4.0mph /  6.4km/h 80% 0.00in /  0mm
08:25 68.9 °F /  20.5 °C 62.8 °F /  17.1 °C 29.97in /  1014.8hPa SSW 2.0mph /  3.2km/h 6.0mph /  9.7km/h 81% 0.00in /  0mm
08:34 69.2 °F /  20.7 °C 62.8 °F /  17.1 °C 29.97in /  1014.8hPa South 2.0mph /  3.2km/h 7.0mph /  11.3km/h 80% 0.00in /  0mm
08:40 69.0 °F /  20.6 °C 62.2 °F /  16.8 °C 29.97in /  1014.8hPa SSW 2.0mph /  3.2km/h 7.0mph /  11.3km/h 79% 0.00in /  0mm
08:45 69.6 °F /  20.9 °C 63.5 °F /  17.5 °C 29.97in /  1014.8hPa South 2.0mph /  3.2km/h 6.0mph /  9.7km/h 81% 0.00in /  0mm
08:50 69.3 °F /  20.7 °C 62.9 °F /  17.2 °C 29.97in /  1014.8hPa SSW 5.0mph /  8km/h 6.0mph /  9.7km/h 80% 0.00in /  0mm
08:54 69.8 °F /  21 °C 63.3 °F /  17.4 °C 29.97in /  1014.8hPa SW 3.0mph /  4.8km/h 6.0mph /  9.7km/h 80% 0.00in /  0mm
08:59 70.0 °F /  21.1 °C 63.2 °F /  17.3 °C 29.97in /  1014.8hPa SW 3.0mph /  4.8km/h 6.0mph /  9.7km/h 79% 0.00in /  0mm
09:05 70.5 °F /  21.4 °C 63.7 °F /  17.6 °C 29.97in /  1014.8hPa SSW 2.0mph /  3.2km/h 6.0mph /  9.7km/h 79% 0.00in /  0mm
09:10 71.2 °F /  21.8 °C 64.0 °F /  17.8 °C 29.98in /  1015.1hPa SSW 2.0mph /  3.2km/h 5.0mph /  8km/h 78% 0.00in /  0mm
09:15 71.4 °F /  21.9 °C 63.4 °F /  17.4 °C 29.98in /  1015.1hPa SSW 3.0mph /  4.8km/h 7.0mph /  11.3km/h 76% 0.00in /  0mm
09:20 71.8 °F /  22.1 °C 63.8 °F /  17.7 °C 29.98in /  1015.1hPa SW 3.0mph /  4.8km/h 7.0mph /  11.3km/h 76% 0.00in /  0mm
09:24 72.3 °F /  22.4 °C 64.3 °F /  17.9 °C 29.98in /  1015.1hPa WSW 4.0mph /  6.4km/h 6.0mph /  9.7km/h 76% 0.00in /  0mm
09:30 72.4 °F /  22.4 °C 64.0 °F /  17.8 °C 29.98in /  1015.1hPa SSW 3.0mph /  4.8km/h 6.0mph /  9.7km/h 75% 0.00in /  0mm
09:34 72.8 °F /  22.7 °C 64.4 °F /  18 °C 29.98in /  1015.1hPa SW 2.0mph /  3.2km/h 6.0mph /  9.7km/h 75% 0.00in /  0mm
09:40 73.3 °F /  22.9 °C 64.9 °F /  18.3 °C 29.98in /  1015.1hPa SSW 4.0mph /  6.4km/h 8.0mph /  12.9km/h 75% 0.00in /  0mm
09:44 72.8 °F /  22.7 °C 64.4 °F /  18 °C 29.98in /  1015.1hPa SW 4.0mph /  6.4km/h 7.0mph /  11.3km/h 75% 0.00in /  0mm
09:50 72.6 °F /  22.6 °C 64.2 °F /  17.9 °C 29.98in /  1015.1hPa WSW 4.0mph /  6.4km/h 7.0mph /  11.3km/h 75% 0.00in /  0mm
09:54 72.4 °F /  22.4 °C 64.0 °F /  17.8 °C 29.98in /  1015.1hPa WSW 4.0mph /  6.4km/h 7.0mph /  11.3km/h 75% 0.00in /  0mm
09:59 72.5 °F /  22.5 °C 64.1 °F /  17.8 °C 29.98in /  1015.1hPa WSW 3.0mph /  4.8km/h 6.0mph /  9.7km/h 75% 0.00in /  0mm
10:05 73.4 °F /  23 °C 65.0 °F /  18.3 °C 29.98in /  1015.1hPa WSW 3.0mph /  4.8km/h 8.0mph /  12.9km/h 75% 0.00in /  0mm
10:10 73.4 °F /  23 °C 64.6 °F /  18.1 °C 29.98in /  1015.1hPa WSW 4.0mph /  6.4km/h 8.0mph /  12.9km/h 74% 0.00in /  0mm
10:15 73.7 °F /  23.2 °C 65.3 °F /  18.5 °C 29.98in /  1015.1hPa WSW 5.0mph /  8km/h 7.0mph /  11.3km/h 75% 0.00in /  0mm
10:20 73.8 °F /  23.2 °C 64.6 °F /  18.1 °C 29.98in /  1015.1hPa WSW 5.0mph /  8km/h 6.0mph /  9.7km/h 73% 0.00in /  0mm
10:24 73.9 °F /  23.3 °C 64.3 °F /  17.9 °C 29.98in /  1015.1hPa WSW 4.0mph /  6.4km/h 8.0mph /  12.9km/h 72% 0.00in /  0mm
10:30 73.3 °F /  22.9 °C 64.1 °F /  17.8 °C 29.98in /  1015.1hPa WSW 3.0mph /  4.8km/h 8.0mph /  12.9km/h 73% 0.00in /  0mm
10:35 73.9 °F /  23.3 °C 64.3 °F /  17.9 °C 29.98in /  1015.1hPa WSW 4.0mph /  6.4km/h 8.0mph /  12.9km/h 72% 0.00in /  0mm
10:39 73.7 °F /  23.2 °C 64.1 °F /  17.8 °C 29.98in /  1015.1hPa SW 3.0mph /  4.8km/h 7.0mph /  11.3km/h 72% 0.00in /  0mm
10:44 74.6 °F /  23.7 °C 66.5 °F /  19.2 °C 29.98in /  1015.1hPa South 2.0mph /  3.2km/h 7.0mph /  11.3km/h 76% 0.00in /  0mm
10:49 75.0 °F /  23.9 °C 65.4 °F /  18.6 °C 29.98in /  1015.1hPa SSW 6.0mph /  9.7km/h 8.0mph /  12.9km/h 72% 0.00in /  0mm
10:54 74.8 °F /  23.8 °C 64.4 °F /  18 °C 29.99in /  1015.5hPa SW 5.0mph /  8km/h 10.0mph /  16.1km/h 70% 0.00in /  0mm
10:59 74.6 °F /  23.7 °C 63.8 °F /  17.7 °C 29.98in /  1015.1hPa WSW 5.0mph /  8km/h 10.0mph /  16.1km/h 69% 0.00in /  0mm
11:05 74.4 °F /  23.6 °C 64.0 °F /  17.8 °C 29.98in /  1015.1hPa SW 3.0mph /  4.8km/h 7.0mph /  11.3km/h 70% 0.00in /  0mm
11:10 74.6 °F /  23.7 °C 64.2 °F /  17.9 °C 29.98in /  1015.1hPa WSW 7.0mph /  11.3km/h 10.0mph /  16.1km/h 70% 0.00in /  0mm
11:15 76.0 °F /  24.4 °C 65.5 °F /  18.6 °C 29.98in /  1015.1hPa West 6.0mph /  9.7km/h 8.0mph /  12.9km/h 70% 0.00in /  0mm
11:20 76.1 °F /  24.5 °C 65.6 °F /  18.7 °C 29.98in /  1015.1hPa West 4.0mph /  6.4km/h 8.0mph /  12.9km/h 70% 0.00in /  0mm
11:24 75.7 °F /  24.3 °C 65.2 °F /  18.4 °C 29.98in /  1015.1hPa WSW 5.0mph /  8km/h 9.0mph /  14.5km/h 70% 0.00in /  0mm
11:29 75.5 °F /  24.2 °C 65.4 °F /  18.6 °C 29.98in /  1015.1hPa WSW 5.0mph /  8km/h 9.0mph /  14.5km/h 71% 0.00in /  0mm
11:34 75.1 °F /  23.9 °C 64.6 °F /  18.1 °C 29.98in /  1015.1hPa WSW 5.0mph /  8km/h 9.0mph /  14.5km/h 70% 0.00in /  0mm
11:40 75.1 °F /  23.9 °C 65.5 °F /  18.6 °C 29.98in /  1015.1hPa WSW 5.0mph /  8km/h 9.0mph /  14.5km/h 72% 0.00in /  0mm
11:45 75.0 °F /  23.9 °C 65.0 °F /  18.3 °C 29.99in /  1015.5hPa WSW 5.0mph /  8km/h 9.0mph /  14.5km/h 71% 0.00in /  0mm
11:49 74.4 °F /  23.6 °C 65.2 °F /  18.4 °C 29.99in /  1015.5hPa West 7.0mph /  11.3km/h 10.0mph /  16.1km/h 73% 0.00in /  0mm
11:54 74.6 °F /  23.7 °C 65.4 °F /  18.6 °C 29.98in /  1015.1hPa WSW 3.0mph /  4.8km/h 10.0mph /  16.1km/h 73% 0.00in /  0mm
11:59 76.7 °F /  24.8 °C 67.4 °F /  19.7 °C 29.98in /  1015.1hPa WSW 2.0mph /  3.2km/h 9.0mph /  14.5km/h 73% 0.00in /  0mm
12:05 77.2 °F /  25.1 °C 66.7 °F /  19.3 °C 29.98in /  1015.1hPa SSW 6.0mph /  9.7km/h 8.0mph /  12.9km/h 70% 0.00in /  0mm
12:10 76.4 °F /  24.7 °C 65.5 °F /  18.6 °C 29.98in /  1015.1hPa WSW 3.0mph /  4.8km/h 12.0mph /  19.3km/h 69% 0.00in /  0mm
12:14 76.1 °F /  24.5 °C 65.6 °F /  18.7 °C 29.98in /  1015.1hPa SSW 5.0mph /  8km/h 12.0mph /  19.3km/h 70% 0.00in /  0mm
12:19 76.2 °F /  24.6 °C 66.9 °F /  19.4 °C 29.98in /  1015.1hPa SSW 4.0mph /  6.4km/h 9.0mph /  14.5km/h 73% 0.00in /  0mm
12:25 76.2 °F /  24.6 °C 65.3 °F /  18.5 °C 29.98in /  1015.1hPa WSW 3.0mph /  4.8km/h 10.0mph /  16.1km/h 69% 0.00in /  0mm
12:29 75.3 °F /  24.1 °C 65.2 °F /  18.4 °C 29.98in /  1015.1hPa SW 5.0mph /  8km/h 10.0mph /  16.1km/h 71% 0.00in /  0mm
12:35 75.1 °F /  23.9 °C 65.5 °F /  18.6 °C 29.98in /  1015.1hPa SW 5.0mph /  8km/h 14.0mph /  22.5km/h 72% 0.00in /  0mm
12:39 75.0 °F /  23.9 °C 65.4 °F /  18.6 °C 29.98in /  1015.1hPa SW 6.0mph /  9.7km/h 14.0mph /  22.5km/h 72% 0.00in /  0mm
12:45 75.6 °F /  24.2 °C 66.3 °F /  19.1 °C 29.98in /  1015.1hPa WSW 5.0mph /  8km/h 13.0mph /  20.9km/h 73% 0.00in /  0mm
12:50 75.6 °F /  24.2 °C 65.9 °F /  18.8 °C 29.98in /  1015.1hPa West 3.0mph /  4.8km/h 13.0mph /  20.9km/h 72% 0.00in /  0mm
12:54 75.1 °F /  23.9 °C 65.5 °F /  18.6 °C 29.99in /  1015.5hPa WSW 6.0mph /  9.7km/h 13.0mph /  20.9km/h 72% 0.00in /  0mm
12:59 75.3 °F /  24.1 °C 66.0 °F /  18.9 °C 29.98in /  1015.1hPa SSW 5.0mph /  8km/h 12.0mph /  19.3km/h 73% 0.00in /  0mm
13:04 76.2 °F /  24.6 °C 66.9 °F /  19.4 °C 29.98in /  1015.1hPa SW 4.0mph /  6.4km/h 11.0mph /  17.7km/h 73% 0.00in /  0mm
13:09 76.8 °F /  24.9 °C 67.5 °F /  19.7 °C 29.97in /  1014.8hPa West 3.0mph /  4.8km/h 12.0mph /  19.3km/h 73% 0.00in /  0mm
13:14 77.7 °F /  25.4 °C 68.0 °F /  20 °C 29.97in /  1014.8hPa West 5.0mph /  8km/h 10.0mph /  16.1km/h 72% 0.00in /  0mm
13:19 77.1 °F /  25.1 °C 66.1 °F /  18.9 °C 29.97in /  1014.8hPa WSW 4.0mph /  6.4km/h 11.0mph /  17.7km/h 69% 0.00in /  0mm
13:24 77.8 °F /  25.4 °C 67.2 °F /  19.6 °C 29.97in /  1014.8hPa SW 6.0mph /  9.7km/h 12.0mph /  19.3km/h 70% 0.00in /  0mm
13:30 77.7 °F /  25.4 °C 66.7 °F /  19.3 °C 29.97in /  1014.8hPa SW 6.0mph /  9.7km/h 12.0mph /  19.3km/h 69% 0.00in /  0mm
13:34 77.8 °F /  25.4 °C 66.0 °F /  18.9 °C 29.97in /  1014.8hPa SW 6.0mph /  9.7km/h 14.0mph /  22.5km/h 67% 0.00in /  0mm
13:39 76.9 °F /  24.9 °C 66.4 °F /  19.1 °C 29.97in /  1014.8hPa WSW 7.0mph /  11.3km/h 14.0mph /  22.5km/h 70% 0.00in /  0mm
13:45 76.3 °F /  24.6 °C 65.4 °F /  18.6 °C 29.97in /  1014.8hPa WSW 6.0mph /  9.7km/h 12.0mph /  19.3km/h 69% 0.00in /  0mm
13:50 76.4 °F /  24.7 °C 65.9 °F /  18.8 °C 29.97in /  1014.8hPa SW 5.0mph /  8km/h 14.0mph /  22.5km/h 70% 0.00in /  0mm
13:54 77.2 °F /  25.1 °C 66.7 °F /  19.3 °C 29.97in /  1014.8hPa WSW 7.0mph /  11.3km/h 14.0mph /  22.5km/h 70% 0.00in /  0mm
13:59 77.0 °F /  25 °C 65.2 °F /  18.4 °C 29.97in /  1014.8hPa WSW 7.0mph /  11.3km/h 13.0mph /  20.9km/h 67% 0.00in /  0mm
14:05 77.4 °F /  25.2 °C 66.0 °F /  18.9 °C 29.97in /  1014.8hPa West 8.0mph /  12.9km/h 13.0mph /  20.9km/h 68% 0.00in /  0mm
14:09 77.9 °F /  25.5 °C 66.5 °F /  19.2 °C 29.97in /  1014.8hPa SW 11.0mph /  17.7km/h 15.0mph /  24.1km/h 68% 0.00in /  0mm
14:14 78.5 °F /  25.8 °C 66.6 °F /  19.2 °C 29.97in /  1014.8hPa SW 7.0mph /  11.3km/h 11.0mph /  17.7km/h 67% 0.00in /  0mm
14:19 78.4 °F /  25.8 °C 67.0 °F /  19.4 °C 29.97in /  1014.8hPa SW 9.0mph /  14.5km/h 10.0mph /  16.1km/h 68% 0.00in /  0mm
14:24 77.8 °F /  25.4 °C 65.5 °F /  18.6 °C 29.97in /  1014.8hPa WSW 7.0mph /  11.3km/h 16.0mph /  25.7km/h 66% 0.00in /  0mm
14:29 77.2 °F /  25.1 °C 65.4 °F /  18.6 °C 29.96in /  1014.4hPa WSW 8.0mph /  12.9km/h 17.0mph /  27.4km/h 67% 0.00in /  0mm
14:34 77.6 °F /  25.3 °C 66.2 °F /  19 °C 29.96in /  1014.4hPa SW 5.0mph /  8km/h 15.0mph /  24.1km/h 68% 0.00in /  0mm
14:40 78.3 °F /  25.7 °C 66.0 °F /  18.9 °C 29.96in /  1014.4hPa SW 9.0mph /  14.5km/h 13.0mph /  20.9km/h 66% 0.00in /  0mm
14:45 78.4 °F /  25.8 °C 64.8 °F /  18.2 °C 29.96in /  1014.4hPa West 11.0mph /  17.7km/h 15.0mph /  24.1km/h 63% 0.00in /  0mm
14:49 78.9 °F /  26.1 °C 65.2 °F /  18.4 °C 29.96in /  1014.4hPa WSW 4.0mph /  6.4km/h 15.0mph /  24.1km/h 63% 0.00in /  0mm
14:54 78.7 °F /  25.9 °C 64.6 °F /  18.1 °C 29.96in /  1014.4hPa WSW 8.0mph /  12.9km/h 17.0mph /  27.4km/h 62% 0.00in /  0mm
14:59 78.8 °F /  26 °C 63.3 °F /  17.4 °C 29.96in /  1014.4hPa WSW 7.0mph /  11.3km/h 17.0mph /  27.4km/h 59% 0.00in /  0mm
15:04 79.1 °F /  26.2 °C 63.1 °F /  17.3 °C 29.96in /  1014.4hPa WSW 8.0mph /  12.9km/h 16.0mph /  25.7km/h 58% 0.00in /  0mm
15:10 78.8 °F /  26 °C 62.3 °F /  16.8 °C 29.95in /  1014.1hPa WSW 8.0mph /  12.9km/h 16.0mph /  25.7km/h 57% 0.00in /  0mm
15:14 78.3 °F /  25.7 °C 61.3 °F /  16.3 °C 29.95in /  1014.1hPa SW 9.0mph /  14.5km/h 19.0mph /  30.6km/h 56% 0.00in /  0mm
15:20 78.5 °F /  25.8 °C 62.5 °F /  16.9 °C 29.95in /  1014.1hPa SW 9.0mph /  14.5km/h 19.0mph /  30.6km/h 58% 0.00in /  0mm
15:24 77.8 °F /  25.4 °C 61.8 °F /  16.6 °C 29.96in /  1014.4hPa SW 17.0mph /  27.4km/h 19.0mph /  30.6km/h 58% 0.00in /  0mm
15:29 77.7 °F /  25.4 °C 63.2 °F /  17.3 °C 29.96in /  1014.4hPa WSW 9.0mph /  14.5km/h 17.0mph /  27.4km/h 61% 0.00in /  0mm
15:34 77.6 °F /  25.3 °C 62.6 °F /  17 °C 29.96in /  1014.4hPa WSW 6.0mph /  9.7km/h 18.0mph /  29km/h 60% 0.00in /  0mm
15:39 78.1 °F /  25.6 °C 64.5 °F /  18.1 °C 29.96in /  1014.4hPa WSW 8.0mph /  12.9km/h 12.0mph /  19.3km/h 63% 0.00in /  0mm
15:44 78.0 °F /  25.6 °C 63.0 °F /  17.2 °C 29.96in /  1014.4hPa SSW 6.0mph /  9.7km/h 20.0mph /  32.2km/h 60% 0.00in /  0mm
15:49 78.2 °F /  25.7 °C 63.2 °F /  17.3 °C 29.96in /  1014.4hPa WSW 11.0mph /  17.7km/h 20.0mph /  32.2km/h 60% 0.00in /  0mm
15:54 77.2 °F /  25.1 °C 61.8 °F /  16.6 °C 29.96in /  1014.4hPa WSW 11.0mph /  17.7km/h 26.0mph /  41.8km/h 59% 0.00in /  0mm
15:59 77.2 °F /  25.1 °C 62.2 °F /  16.8 °C 29.96in /  1014.4hPa WSW 11.0mph /  17.7km/h 26.0mph /  41.8km/h 60% 0.00in /  0mm
16:05 77.2 °F /  25.1 °C 62.2 °F /  16.8 °C 29.96in /  1014.4hPa WSW 11.0mph /  17.7km/h 24.0mph /  38.6km/h 60% 0.00in /  0mm
16:09 77.3 °F /  25.2 °C 62.8 °F /  17.1 °C 29.96in /  1014.4hPa WSW 10.0mph /  16.1km/h 21.0mph /  33.8km/h 61% 0.00in /  0mm
16:15 77.4 °F /  25.2 °C 61.9 °F /  16.6 °C 29.96in /  1014.4hPa WSW 9.0mph /  14.5km/h 21.0mph /  33.8km/h 59% 0.00in /  0mm
16:20 77.4 °F /  25.2 °C 62.9 °F /  17.2 °C 29.96in /  1014.4hPa WSW 12.0mph /  19.3km/h 22.0mph /  35.4km/h 61% 0.00in /  0mm
16:24 77.6 °F /  25.3 °C 63.1 °F /  17.3 °C 29.96in /  1014.4hPa WSW 10.0mph /  16.1km/h 22.0mph /  35.4km/h 61% 0.00in /  0mm
16:29 76.1 °F /  24.5 °C 62.1 °F /  16.7 °C 29.96in /  1014.4hPa WSW 11.0mph /  17.7km/h 18.0mph /  29km/h 62% 0.00in /  0mm
16:34 75.0 °F /  23.9 °C 62.4 °F /  16.9 °C 29.95in /  1014.1hPa WSW 7.0mph /  11.3km/h 21.0mph /  33.8km/h 65% 0.00in /  0mm
16:39 75.6 °F /  24.2 °C 62.6 °F /  17 °C 29.95in /  1014.1hPa West 4.0mph /  6.4km/h 17.0mph /  27.4km/h 64% 0.00in /  0mm
16:44 76.5 °F /  24.7 °C 62.5 °F /  16.9 °C 29.95in /  1014.1hPa SW 12.0mph /  19.3km/h 22.0mph /  35.4km/h 62% 0.00in /  0mm
16:49 76.9 °F /  24.9 °C 62.9 °F /  17.2 °C 29.96in /  1014.4hPa SSW 11.0mph /  17.7km/h 22.0mph /  35.4km/h 62% 0.00in /  0mm
16:54 76.9 °F /  24.9 °C 62.9 °F /  17.2 °C 29.96in /  1014.4hPa WSW 16.0mph /  25.7km/h 22.0mph /  35.4km/h 62% 0.00in /  0mm
16:59 76.8 °F /  24.9 °C 62.8 °F /  17.1 °C 29.95in /  1014.1hPa WSW 10.0mph /  16.1km/h 22.0mph /  35.4km/h 62% 0.00in /  0mm
17:04 76.7 °F /  24.8 °C 63.2 °F /  17.3 °C 29.95in /  1014.1hPa WSW 10.0mph /  16.1km/h 20.0mph /  32.2km/h 63% 0.00in /  0mm
17:09 76.5 °F /  24.7 °C 63.0 °F /  17.2 °C 29.95in /  1014.1hPa SW 18.0mph /  29km/h 18.0mph /  29km/h 63% 0.00in /  0mm
17:14 76.8 °F /  24.9 °C 63.7 °F /  17.6 °C 29.96in /  1014.4hPa WSW 14.0mph /  22.5km/h 18.0mph /  29km/h 64% 0.00in /  0mm
17:19 76.5 °F /  24.7 °C 63.0 °F /  17.2 °C 29.95in /  1014.1hPa WSW 9.0mph /  14.5km/h 21.0mph /  33.8km/h 63% 0.00in /  0mm
17:24 76.1 °F /  24.5 °C 62.6 °F /  17 °C 29.95in /  1014.1hPa WSW 12.0mph /  19.3km/h 21.0mph /  33.8km/h 63% 0.00in /  0mm
17:29 76.0 °F /  24.4 °C 62.5 °F /  16.9 °C 29.95in /  1014.1hPa WSW 11.0mph /  17.7km/h 23.0mph /  37km/h 63% 0.00in /  0mm
17:34 76.1 °F /  24.5 °C 62.6 °F /  17 °C 29.95in /  1014.1hPa WSW 11.0mph /  17.7km/h 23.0mph /  37km/h 63% 0.00in /  0mm
17:39 76.4 °F /  24.7 °C 62.0 °F /  16.7 °C 29.95in /  1014.1hPa WSW 9.0mph /  14.5km/h 20.0mph /  32.2km/h 61% 0.00in /  0mm
17:44 76.4 °F /  24.7 °C 62.4 °F /  16.9 °C 29.95in /  1014.1hPa SW 15.0mph /  24.1km/h 17.0mph /  27.4km/h 62% 0.00in /  0mm
17:49 76.4 °F /  24.7 °C 62.4 °F /  16.9 °C 29.95in /  1014.1hPa WSW 7.0mph /  11.3km/h 19.0mph /  30.6km/h 62% 0.00in /  0mm
17:54 76.1 °F /  24.5 °C 62.1 °F /  16.7 °C 29.95in /  1014.1hPa WSW 9.0mph /  14.5km/h 19.0mph /  30.6km/h 62% 0.00in /  0mm
17:59 75.9 °F /  24.4 °C 61.9 °F /  16.6 °C 29.95in /  1014.1hPa WNW 7.0mph /  11.3km/h 21.0mph /  33.8km/h 62% 0.00in /  0mm
18:04 75.8 °F /  24.3 °C 62.3 °F /  16.8 °C 29.95in /  1014.1hPa WSW 9.0mph /  14.5km/h 21.0mph /  33.8km/h 63% 0.00in /  0mm
18:09 76.0 °F /  24.4 °C 62.5 °F /  16.9 °C 29.95in /  1014.1hPa West 12.0mph /  19.3km/h 23.0mph /  37km/h 63% 0.00in /  0mm
18:14 75.4 °F /  24.1 °C 62.4 °F /  16.9 °C 29.95in /  1014.1hPa WSW 11.0mph /  17.7km/h 16.0mph /  25.7km/h 64% 0.00in /  0mm
18:19 75.3 °F /  24.1 °C 62.3 °F /  16.8 °C 29.94in /  1013.8hPa West 6.0mph /  9.7km/h 15.0mph /  24.1km/h 64% 0.00in /  0mm
18:24 74.9 °F /  23.8 °C 61.9 °F /  16.6 °C 29.95in /  1014.1hPa SW 8.0mph /  12.9km/h 18.0mph /  29km/h 64% 0.00in /  0mm
18:29 74.6 °F /  23.7 °C 62.1 °F /  16.7 °C 29.95in /  1014.1hPa SW 9.0mph /  14.5km/h 20.0mph /  32.2km/h 65% 0.00in /  0mm
18:34 74.6 °F /  23.7 °C 61.6 °F /  16.4 °C 29.95in /  1014.1hPa WSW 8.0mph /  12.9km/h 20.0mph /  32.2km/h 64% 0.00in /  0mm
18:39 74.7 °F /  23.7 °C 61.7 °F /  16.5 °C 29.95in /  1014.1hPa WSW 8.0mph /  12.9km/h 21.0mph /  33.8km/h 64% 0.00in /  0mm
18:44 74.4 °F /  23.6 °C 61.4 °F /  16.3 °C 29.95in /  1014.1hPa SW 10.0mph /  16.1km/h 19.0mph /  30.6km/h 64% 0.00in /  0mm
18:49 74.3 °F /  23.5 °C 61.3 °F /  16.3 °C 29.95in /  1014.1hPa SW 12.0mph /  19.3km/h 22.0mph /  35.4km/h 64% 0.00in /  0mm
18:54 74.2 °F /  23.4 °C 61.2 °F /  16.2 °C 29.95in /  1014.1hPa WSW 9.0mph /  14.5km/h 22.0mph /  35.4km/h 64% 0.00in /  0mm
18:59 74.1 °F /  23.4 °C 61.1 °F /  16.2 °C 29.95in /  1014.1hPa WSW 9.0mph /  14.5km/h 17.0mph /  27.4km/h 64% 0.00in /  0mm
19:04 74.2 °F /  23.4 °C 61.2 °F /  16.2 °C 29.95in /  1014.1hPa SSE 9.0mph /  14.5km/h 18.0mph /  29km/h 64% 0.00in /  0mm
19:09 74.0 °F /  23.3 °C 61.0 °F /  16.1 °C 29.95in /  1014.1hPa WSW 7.0mph /  11.3km/h 14.0mph /  22.5km/h 64% 0.00in /  0mm
19:14 73.9 °F /  23.3 °C 61.4 °F /  16.3 °C 29.95in /  1014.1hPa WSW 7.0mph /  11.3km/h 17.0mph /  27.4km/h 65% 0.00in /  0mm
19:19 73.5 °F /  23.1 °C 61.4 °F /  16.3 °C 29.95in /  1014.1hPa SSW 9.0mph /  14.5km/h 17.0mph /  27.4km/h 66% 0.00in /  0mm
19:24 73.3 °F /  22.9 °C 61.7 °F /  16.5 °C 29.95in /  1014.1hPa WSW 10.0mph /  16.1km/h 14.0mph /  22.5km/h 67% 0.00in /  0mm
19:29 73.2 °F /  22.9 °C 61.6 °F /  16.4 °C 29.95in /  1014.1hPa SW 8.0mph /  12.9km/h 14.0mph /  22.5km/h 67% 0.00in /  0mm
19:34 73.1 °F /  22.8 °C 61.9 °F /  16.6 °C 29.94in /  1013.8hPa SW 8.0mph /  12.9km/h 15.0mph /  24.1km/h 68% 0.00in /  0mm
19:39 72.9 °F /  22.7 °C 61.7 °F /  16.5 °C 29.94in /  1013.8hPa SW 7.0mph /  11.3km/h 15.0mph /  24.1km/h 68% 0.00in /  0mm
19:44 72.9 °F /  22.7 °C 61.7 °F /  16.5 °C 29.94in /  1013.8hPa SW 7.0mph /  11.3km/h 15.0mph /  24.1km/h 68% 0.00in /  0mm
19:49 72.6 °F /  22.6 °C 61.4 °F /  16.3 °C 29.94in /  1013.8hPa SW 8.0mph /  12.9km/h 12.0mph /  19.3km/h 68% 0.00in /  0mm
19:54 72.4 °F /  22.4 °C 61.7 °F /  16.5 °C 29.93in /  1013.4hPa WSW 8.0mph /  12.9km/h 14.0mph /  22.5km/h 69% 0.00in /  0mm
19:59 72.1 °F /  22.3 °C 61.4 °F /  16.3 °C 29.93in /  1013.4hPa WSW 7.0mph /  11.3km/h 15.0mph /  24.1km/h 69% 0.00in /  0mm
20:04 71.9 °F /  22.2 °C 61.6 °F /  16.4 °C 29.93in /  1013.4hPa SW 2.0mph /  3.2km/h 12.0mph /  19.3km/h 70% 0.00in /  0mm
20:09 71.7 °F /  22.1 °C 61.8 °F /  16.6 °C 29.93in /  1013.4hPa West 7.0mph /  11.3km/h 13.0mph /  20.9km/h 71% 0.00in /  0mm
20:14 71.4 °F /  21.9 °C 61.5 °F /  16.4 °C 29.93in /  1013.4hPa West 7.0mph /  11.3km/h 15.0mph /  24.1km/h 71% 0.00in /  0mm
20:19 71.4 °F /  21.9 °C 61.9 °F /  16.6 °C 29.93in /  1013.4hPa SW 5.0mph /  8km/h 15.0mph /  24.1km/h 72% 0.00in /  0mm
20:24 71.3 °F /  21.8 °C 61.8 °F /  16.6 °C 29.93in /  1013.4hPa West 4.0mph /  6.4km/h 12.0mph /  19.3km/h 72% 0.00in /  0mm
20:29 71.2 °F /  21.8 °C 61.7 °F /  16.5 °C 29.93in /  1013.4hPa SW 6.0mph /  9.7km/h 12.0mph /  19.3km/h 72% 0.00in /  0mm
20:34 71.1 °F /  21.7 °C 61.6 °F /  16.4 °C 29.93in /  1013.4hPa SW 6.0mph /  9.7km/h 13.0mph /  20.9km/h 72% 0.00in /  0mm
20:39 71.0 °F /  21.7 °C 61.5 °F /  16.4 °C 29.93in /  1013.4hPa SW 7.0mph /  11.3km/h 13.0mph /  20.9km/h 72% 0.00in /  0mm
20:44 70.9 °F /  21.6 °C 61.4 °F /  16.3 °C 29.93in /  1013.4hPa WSW 5.0mph /  8km/h 12.0mph /  19.3km/h 72% 0.00in /  0mm
20:49 71.0 °F /  21.7 °C 61.5 °F /  16.4 °C 29.94in /  1013.8hPa SSW 5.0mph /  8km/h 13.0mph /  20.9km/h 72% 0.00in /  0mm
20:54 71.0 °F /  21.7 °C 61.5 °F /  16.4 °C 29.94in /  1013.8hPa West 7.0mph /  11.3km/h 17.0mph /  27.4km/h 72% 0.00in /  0mm
20:59 71.0 °F /  21.7 °C 61.5 °F /  16.4 °C 29.94in /  1013.8hPa SW 4.0mph /  6.4km/h 13.0mph /  20.9km/h 72% 0.00in /  0mm
21:04 70.9 °F /  21.6 °C 61.8 °F /  16.6 °C 29.93in /  1013.4hPa SW 4.0mph /  6.4km/h 10.0mph /  16.1km/h 73% 0.00in /  0mm
21:09 70.8 °F /  21.6 °C 61.7 °F /  16.5 °C 29.93in /  1013.4hPa WSW 4.0mph /  6.4km/h 11.0mph /  17.7km/h 73% 0.00in /  0mm
21:14 70.9 °F /  21.6 °C 61.8 °F /  16.6 °C 29.93in /  1013.4hPa WSW 3.0mph /  4.8km/h 10.0mph /  16.1km/h 73% 0.00in /  0mm
21:19 70.9 °F /  21.6 °C 61.8 °F /  16.6 °C 29.93in /  1013.4hPa SW 6.0mph /  9.7km/h 12.0mph /  19.3km/h 73% 0.00in /  0mm
21:24 71.0 °F /  21.7 °C 61.9 °F /  16.6 °C 29.94in /  1013.8hPa SW 7.0mph /  11.3km/h 13.0mph /  20.9km/h 73% 0.00in /  0mm
21:29 71.0 °F /  21.7 °C 61.9 °F /  16.6 °C 29.94in /  1013.8hPa WSW 6.0mph /  9.7km/h 13.0mph /  20.9km/h 73% 0.00in /  0mm
21:34 71.1 °F /  21.7 °C 62.0 °F /  16.7 °C 29.94in /  1013.8hPa WSW 6.0mph /  9.7km/h 13.0mph /  20.9km/h 73% 0.00in /  0mm
21:39 71.1 °F /  21.7 °C 62.0 °F /  16.7 °C 29.94in /  1013.8hPa SW 6.0mph /  9.7km/h 13.0mph /  20.9km/h 73% 0.00in /  0mm
21:44 71.1 °F /  21.7 °C 62.0 °F /  16.7 °C 29.94in /  1013.8hPa SW 6.0mph /  9.7km/h 15.0mph /  24.1km/h 73% 0.00in /  0mm
21:49 71.1 °F /  21.7 °C 62.0 °F /  16.7 °C 29.93in /  1013.4hPa SW 5.0mph /  8km/h 13.0mph /  20.9km/h 73% 0.00in /  0mm
21:54 71.1 °F /  21.7 °C 62.0 °F /  16.7 °C 29.94in /  1013.8hPa WNW 8.0mph /  12.9km/h 13.0mph /  20.9km/h 73% 0.00in /  0mm
21:59 71.2 °F /  21.8 °C 62.1 °F /  16.7 °C 29.94in /  1013.8hPa SW 6.0mph /  9.7km/h 13.0mph /  20.9km/h 73% 0.00in /  0mm
22:04 71.4 °F /  21.9 °C 61.9 °F /  16.6 °C 29.94in /  1013.8hPa SSE 6.0mph /  9.7km/h 14.0mph /  22.5km/h 72% 0.00in /  0mm
22:09 71.5 °F /  21.9 °C 62.0 °F /  16.7 °C 29.94in /  1013.8hPa SW 6.0mph /  9.7km/h 15.0mph /  24.1km/h 72% 0.00in /  0mm
22:14 71.5 °F /  21.9 °C 62.0 °F /  16.7 °C 29.94in /  1013.8hPa South 3.0mph /  4.8km/h 9.0mph /  14.5km/h 72% 0.00in /  0mm
22:19 71.5 °F /  21.9 °C 62.0 °F /  16.7 °C 29.93in /  1013.4hPa SW 9.0mph /  14.5km/h 12.0mph /  19.3km/h 72% 0.00in /  0mm
22:24 71.4 °F /  21.9 °C 61.9 °F /  16.6 °C 29.93in /  1013.4hPa WSW 11.0mph /  17.7km/h 15.0mph /  24.1km/h 72% 0.00in /  0mm
22:29 71.4 °F /  21.9 °C 61.5 °F /  16.4 °C 29.94in /  1013.8hPa WSW 6.0mph /  9.7km/h 17.0mph /  27.4km/h 71% 0.00in /  0mm
22:34 71.4 °F /  21.9 °C 61.9 °F /  16.6 °C 29.94in /  1013.8hPa SW 7.0mph /  11.3km/h 17.0mph /  27.4km/h 72% 0.00in /  0mm
22:39 71.4 °F /  21.9 °C 61.9 °F /  16.6 °C 29.94in /  1013.8hPa SW 7.0mph /  11.3km/h 15.0mph /  24.1km/h 72% 0.00in /  0mm
22:44 71.3 °F /  21.8 °C 61.8 °F /  16.6 °C 29.94in /  1013.8hPa WSW 8.0mph /  12.9km/h 14.0mph /  22.5km/h 72% 0.00in /  0mm
22:49 71.3 °F /  21.8 °C 61.8 °F /  16.6 °C 29.94in /  1013.8hPa WSW 4.0mph /  6.4km/h 13.0mph /  20.9km/h 72% 0.00in /  0mm
22:54 71.1 °F /  21.7 °C 62.0 °F /  16.7 °C 29.94in /  1013.8hPa SW 10.0mph /  16.1km/h 12.0mph /  19.3km/h 73% 0.00in /  0mm
22:59 71.1 °F /  21.7 °C 62.0 °F /  16.7 °C 29.94in /  1013.8hPa WSW 6.0mph /  9.7km/h 14.0mph /  22.5km/h 73% 0.00in /  0mm
23:04 71.1 °F /  21.7 °C 62.0 °F /  16.7 °C 29.94in /  1013.8hPa WSW 6.0mph /  9.7km/h 14.0mph /  22.5km/h 73% 0.00in /  0mm
23:09 70.9 °F /  21.6 °C 61.8 °F /  16.6 °C 29.94in /  1013.8hPa WSW 6.0mph /  9.7km/h 14.0mph /  22.5km/h 73% 0.00in /  0mm
23:14 70.8 °F /  21.6 °C 62.1 °F /  16.7 °C 29.95in /  1014.1hPa WSW 6.0mph /  9.7km/h 12.0mph /  19.3km/h 74% 0.00in /  0mm
23:19 70.8 °F /  21.6 °C 62.1 °F /  16.7 °C 29.95in /  1014.1hPa WSW 7.0mph /  11.3km/h 12.0mph /  19.3km/h 74% 0.00in /  0mm
23:24 70.8 °F /  21.6 °C 62.1 °F /  16.7 °C 29.95in /  1014.1hPa WSW 6.0mph /  9.7km/h 12.0mph /  19.3km/h 74% 0.00in /  0mm
23:29 70.7 °F /  21.5 °C 62.4 °F /  16.9 °C 29.95in /  1014.1hPa SW 8.0mph /  12.9km/h 12.0mph /  19.3km/h 75% 0.00in /  0mm
23:34 70.8 °F /  21.6 °C 62.5 °F /  16.9 °C 29.95in /  1014.1hPa SSW 2.0mph /  3.2km/h 15.0mph /  24.1km/h 75% 0.00in /  0mm
23:39 70.7 °F /  21.5 °C 62.4 °F /  16.9 °C 29.95in /  1014.1hPa West 7.0mph /  11.3km/h 11.0mph /  17.7km/h 75% 0.00in /  0mm
23:44 70.6 °F /  21.4 °C 62.3 °F /  16.8 °C 29.95in /  1014.1hPa WSW 3.0mph /  4.8km/h 12.0mph /  19.3km/h 75% 0.00in /  0mm
23:49 70.6 °F /  21.4 °C 62.3 °F /  16.8 °C 29.96in /  1014.4hPa South 7.0mph /  11.3km/h 11.0mph /  17.7km/h 75% 0.00in /  0mm
23:54 70.6 °F /  21.4 °C 62.7 °F /  17.1 °C 29.96in /  1014.4hPa SW 4.0mph /  6.4km/h 12.0mph /  19.3km/h 76% 0.00in /  0mm
23:59 70.6 °F /  21.4 °C 62.7 °F /  17.1 °C 29.95in /  1014.1hPa WSW 6.0mph /  9.7km/h 12.0mph /  19.3km/h 76% 0.00in /  0mm
Buffalo, New York, USA
Compliments of Weather Underground - 2.5 mb